Qiryat Motzkin, Israel
Current Conditions -  °F | °C
As of 8:50 PM on Thursday 30 Oct 2014 (Local Time) from LLHA Reporting Station
Thunderstorm Thunderstorm  
Wind Chill: 72°   Ceiling: Unl
Heat Index: 72°   Visibility: 6mi
Dew Point: 61°   Wind: 2mph
Humidity: 69%   Direction: NA
Pressure: 29.94"   Gusts: NA
Location:  32.82°N, 35.06°E
Report Text: LLHA 301750Z VRB02KT 9999 VCTS FEW///CB SCT035 22/16 Q1014 RMKCB OBS SW OF AD
Loading
Personal Weather Stations






























Interactive Weather Map
Tropical Storm Tracking
New forecast layout! Learn more

10-Day Weather Forecast

Advertisements
Track Severe Weather on mobile